| time (UTC) | temp F | wind direction | speed MPH | gust MPH | rain 1hr in | rain 24hr in | rain mn in | humidity % | barometer mb |
| 20260506155730 | 61 | 0 | 4.0 | 9.0 | 0.00 | 0.00 | 0.00 | 53 | 1015.7 |
| 20260506155229 | 60 | 0 | 4.0 | 9.0 | 0.00 | 0.00 | 0.00 | 54 | 1015.7 |
| 20260506154735 | 59 | 0 | 3.0 | 6.0 | 0.00 | 0.00 | 0.00 | 56 | 1015.7 |
| 20260506154728 | 60 | 117 | 4.0 | 7.0 | 0.00 | 0.00 | 0.00 | 55 | 1015.7 |
| 20260506154229 | 60 | 116 | 3.0 | 7.0 | 0.00 | 0.00 | 0.00 | 55 | 1015.7 |
| 20260506153227 | 59 | 0 | 3.0 | 5.0 | 0.00 | 0.00 | 0.00 | 57 | 1015.7 |
| 20260506152727 | 58 | 0 | 4.0 | 8.0 | 0.00 | 0.00 | 0.00 | 58 | 1015.7 |
| 20260506152225 | 58 | 0 | 3.0 | 8.0 | 0.00 | 0.00 | 0.00 | 59 | 1015.6 |
| 20260506151723 | 57 | 113 | 3.0 | 8.0 | 0.00 | 0.00 | 0.00 | 60 | 1015.6 |
| 20260506151227 | 56 | 0 | 4.0 | 8.0 | 0.00 | 0.00 | 0.00 | 62 | 1015.7 |
| 20260506151223 | 56 | 0 | 4.0 | 8.0 | 0.00 | 0.00 | 0.00 | 61 | 1015.6 |
| 20260506150223 | 55 | 109 | 4.0 | 8.0 | 0.00 | 0.00 | 0.00 | 63 | 1015.6 |
| 20260506145728 | 55 | 0 | 4.0 | 8.0 | 0.00 | 0.00 | 0.00 | 63 | 1015.6 |
| 20260506145222 | 54 | 0 | 5.0 | 8.0 | 0.00 | 0.00 | 0.00 | 64 | 1015.5 |
| 20260506144723 | 54 | 0 | 4.0 | 9.0 | 0.00 | 0.00 | 0.00 | 64 | 1015.6 |
| 20260506144223 | 53 | 87 | 4.0 | 9.0 | 0.00 | 0.00 | 0.00 | 66 | 1015.5 |
| 20260506143722 | 53 | 0 | 4.0 | 8.0 | 0.00 | 0.00 | 0.00 | 67 | 1015.5 |
| 20260506143227 | 52 | 0 | 3.0 | 6.0 | 0.00 | 0.00 | 0.00 | 68 | 1015.5 |
| 20260506143223 | 52 | 0 | 4.0 | 6.0 | 0.00 | 0.00 | 0.00 | 67 | 1015.4 |
| 20260506142221 | 51 | 96 | 2.0 | 6.0 | 0.00 | 0.00 | 0.00 | 68 | 1015.4 |
| 20260506141719 | 51 | 0 | 2.0 | 3.0 | 0.00 | 0.00 | 0.00 | 69 | 1015.3 |
| 20260506141223 | 50 | 92 | 4.0 | 10.0 | 0.00 | 0.00 | 0.00 | 70 | 1015.1 |
| 20260506141219 | 50 | 92 | 3.0 | 7.0 | 0.00 | 0.00 | 0.00 | 70 | 1015.2 |
| 20260506140824 | 50 | 91 | 4.0 | 10.0 | 0.00 | 0.00 | 0.00 | 69 | 1015.2 |
| 20260506135720 | 50 | 88 | 3.0 | 7.0 | 0.00 | 0.00 | 0.00 | 72 | 1015.1 |
| 20260506135219 | 49 | 88 | 3.0 | 7.0 | 0.00 | 0.00 | 0.00 | 71 | 1015.0 |
| 20260506134716 | 49 | 89 | 2.0 | 7.0 | 0.00 | 0.00 | 0.00 | 71 | 1015.0 |
| 20260506134218 | 49 | 84 | 4.0 | 10.0 | 0.00 | 0.00 | 0.00 | 71 | 1015.0 |
| 20260506133721 | 50 | 0 | 5.0 | 10.0 | 0.00 | 0.00 | 0.00 | 68 | 1014.9 |
| 20260506133716 | 49 | 89 | 6.0 | 10.0 | 0.00 | 0.00 | 0.00 | 70 | 1014.9 |
| 20260506133322 | 51 | 0 | 4.0 | 10.0 | 0.00 | 0.00 | 0.00 | 67 | 1014.5 |
| 20260506132716 | 50 | 0 | 4.0 | 10.0 | 0.00 | 0.00 | 0.00 | 68 | 1014.7 |
| 20260506131717 | 51 | 133 | 4.0 | 10.0 | 0.00 | 0.00 | 0.00 | 65 | 1014.5 |
| 20260506131216 | 53 | 0 | 9.0 | 21.0 | 0.00 | 0.00 | 0.00 | 61 | 1014.5 |
| 20260506130717 | 57 | 0 | 14.0 | 26.0 | 0.00 | 0.00 | 0.00 | 60 | 1014.4 |
| 20260506130217 | 56 | 0 | 16.0 | 26.0 | 0.00 | 0.00 | 0.00 | 60 | 1014.1 |
| 20260506125716 | 57 | 0 | 15.0 | 24.0 | 0.00 | 0.00 | 0.00 | 59 | 1014.1 |
| 20260506125217 | 57 | 0 | 13.0 | 22.0 | 0.00 | 0.00 | 0.00 | 59 | 1014.1 |
| 20260506124716 | 57 | 0 | 12.0 | 21.0 | 0.00 | 0.00 | 0.00 | 58 | 1014.0 |
| 20260506124217 | 57 | 0 | 13.0 | 21.0 | 0.00 | 0.00 | 0.00 | 59 | 1014.1 |
| 20260506123822 | 56 | 0 | 14.0 | 25.0 | 0.00 | 0.00 | 0.00 | 60 | 1013.9 |
| 20260506123721 | 57 | 0 | 14.0 | 24.0 | 0.00 | 0.00 | 0.00 | 60 | 1013.8 |
| 20260506123717 | 56 | 0 | 14.0 | 24.0 | 0.00 | 0.00 | 0.00 | 60 | 1014.0 |
| 20260506122216 | 57 | 0 | 15.0 | 26.0 | 0.00 | 0.00 | 0.00 | 60 | 1013.9 |
| 20260506121717 | 57 | 0 | 15.0 | 26.0 | 0.00 | 0.00 | 0.00 | 60 | 1013.9 |
| 20260506121217 | 56 | 0 | 14.0 | 20.0 | 0.00 | 0.00 | 0.00 | 61 | 1013.9 |
| 20260506120722 | 56 | 0 | 13.0 | 21.0 | 0.00 | 0.00 | 0.00 | 59 | 1013.8 |
| 20260506120717 | 56 | 0 | 14.0 | 21.0 | 0.00 | 0.00 | 0.00 | 61 | 1013.8 |
| 20260506115716 | 57 | 0 | 14.0 | 27.0 | 0.00 | 0.00 | 0.00 | 58 | 1013.8 |
| 20260506115217 | 57 | 0 | 13.0 | 27.0 | 0.00 | 0.00 | 0.00 | 58 | 1013.8 |
| 20260506114716 | 56 | 0 | 12.0 | 25.0 | 0.00 | 0.00 | 0.00 | 60 | 1013.7 |
| 20260506114217 | 56 | 0 | 16.0 | 28.0 | 0.00 | 0.00 | 0.00 | 61 | 1013.8 |
| 20260506113716 | 56 | 0 | 17.0 | 28.0 | 0.00 | 0.00 | 0.00 | 60 | 1013.7 |
| 20260506113217 | 56 | 0 | 15.0 | 25.0 | 0.00 | 0.00 | 0.00 | 60 | 1013.6 |
| 20260506112720 | 57 | 0 | 13.0 | 22.0 | 0.00 | 0.00 | 0.00 | 58 | 1013.8 |
| 20260506112716 | 56 | 0 | 14.0 | 24.0 | 0.00 | 0.00 | 0.00 | 60 | 1013.7 |
| 20260506111716 | 57 | 0 | 14.0 | 23.0 | 0.00 | 0.00 | 0.00 | 60 | 1013.8 |
| 20260506111217 | 56 | 0 | 16.0 | 25.0 | 0.00 | 0.00 | 0.00 | 61 | 1013.7 |
| 20260506110717 | 56 | 0 | 15.0 | 25.0 | 0.00 | 0.00 | 0.00 | 61 | 1013.7 |
| 20260506110216 | 57 | 0 | 14.0 | 23.0 | 0.00 | 0.00 | 0.00 | 58 | 1013.6 |
| 20260506105717 | 57 | 0 | 14.0 | 23.0 | 0.00 | 0.00 | 0.00 | 58 | 1013.6 |
| 20260506105216 | 57 | 0 | 13.0 | 22.0 | 0.00 | 0.00 | 0.00 | 58 | 1013.6 |
| 20260506104721 | 57 | 0 | 14.0 | 21.0 | 0.00 | 0.00 | 0.00 | 59 | 1013.5 |
| 20260506104717 | 57 | 0 | 13.0 | 21.0 | 0.00 | 0.00 | 0.00 | 58 | 1013.5 |
| 20260506103717 | 57 | 0 | 14.0 | 21.0 | 0.00 | 0.00 | 0.00 | 61 | 1013.5 |
| 20260506103220 | 57 | 0 | 14.0 | 26.0 | 0.00 | 0.00 | 0.00 | 59 | 1013.6 |
| 20260506103216 | 56 | 0 | 15.0 | 26.0 | 0.00 | 0.00 | 0.00 | 60 | 1013.6 |
| 20260506102217 | 57 | 0 | 13.0 | 26.0 | 0.00 | 0.00 | 0.00 | 57 | 1013.4 |
| 20260506101716 | 57 | 0 | 13.0 | 20.0 | 0.00 | 0.00 | 0.00 | 58 | 1013.5 |
| 20260506101217 | 57 | 0 | 15.0 | 23.0 | 0.00 | 0.00 | 0.00 | 60 | 1013.3 |
| 20260506100716 | 57 | 0 | 14.0 | 23.0 | 0.00 | 0.00 | 0.00 | 60 | 1013.4 |
| 20260506100217 | 56 | 0 | 13.0 | 21.0 | 0.00 | 0.00 | 0.00 | 60 | 1013.4 |
| 20260506095717 | 57 | 0 | 14.0 | 23.0 | 0.00 | 0.00 | 0.00 | 60 | 1013.5 |
| 20260506095216 | 57 | 0 | 14.0 | 23.0 | 0.00 | 0.00 | 0.00 | 59 | 1013.4 |
| 20260506094717 | 57 | 0 | 15.0 | 24.0 | 0.00 | 0.00 | 0.00 | 58 | 1013.4 |
| 20260506094215 | 57 | 0 | 15.0 | 24.0 | 0.00 | 0.00 | 0.00 | 59 | 1013.4 |
| 20260506093721 | 57 | 0 | 15.0 | 23.0 | 0.00 | 0.00 | 0.00 | 59 | 1013.3 |
| 20260506093717 | 57 | 224 | 15.0 | 22.0 | 0.00 | 0.00 | 0.00 | 58 | 1013.3 |
| 20260506092716 | 57 | 0 | 15.0 | 23.0 | 0.00 | 0.00 | 0.00 | 60 | 1013.3 |
| 20260506092217 | 57 | 0 | 15.0 | 23.0 | 0.00 | 0.00 | 0.00 | 59 | 1013.3 |
| 20260506091714 | 57 | 0 | 15.0 | 23.0 | 0.00 | 0.00 | 0.00 | 57 | 1013.2 |
| 20260506091214 | 58 | 0 | 15.0 | 23.0 | 0.00 | 0.00 | 0.00 | 55 | 1013.3 |
| 20260506090715 | 58 | 0 | 14.0 | 23.0 | 0.00 | 0.00 | 0.00 | 57 | 1013.4 |
| 20260506090212 | 57 | 0 | 14.0 | 23.0 | 0.00 | 0.00 | 0.00 | 59 | 1013.3 |
| 20260506085711 | 57 | 0 | 15.0 | 23.0 | 0.00 | 0.00 | 0.00 | 60 | 1013.3 |
| 20260506085210 | 57 | 267 | 14.0 | 23.0 | 0.00 | 0.00 | 0.00 | 59 | 1013.4 |
| 20260506084710 | 57 | 0 | 14.0 | 26.0 | 0.00 | 0.00 | 0.00 | 58 | 1013.4 |
| 20260506084210 | 58 | 0 | 15.0 | 26.0 | 0.00 | 0.00 | 0.00 | 57 | 1013.4 |
| 20260506083710 | 58 | 0 | 14.0 | 21.0 | 0.00 | 0.00 | 0.00 | 57 | 1013.5 |
| 20260506083208 | 58 | 0 | 14.0 | 21.0 | 0.00 | 0.00 | 0.00 | 57 | 1013.4 |
| 20260506082708 | 57 | 0 | 15.0 | 21.0 | 0.00 | 0.00 | 0.00 | 58 | 1013.4 |
| 20260506082208 | 57 | 0 | 14.0 | 23.0 | 0.00 | 0.00 | 0.00 | 58 | 1013.3 |
| 20260506081707 | 57 | 0 | 14.0 | 23.0 | 0.00 | 0.00 | 0.00 | 58 | 1013.4 |
| 20260506081206 | 57 | 0 | 15.0 | 23.0 | 0.00 | 0.00 | 0.00 | 58 | 1013.5 |
| 20260506080721 | 58 | 0 | 16.0 | 24.0 | 0.00 | 0.00 | 0.00 | 57 | 1013.3 |
| 20260506080706 | 58 | 0 | 15.0 | 24.0 | 0.00 | 0.00 | 0.00 | 57 | 1013.4 |
| 20260506072700 | 58 | 0 | 15.0 | 24.0 | 0.00 | 0.00 | 0.00 | 57 | 1013.2 |
| 20260506072200 | 58 | 0 | 14.0 | 23.0 | 0.00 | 0.00 | 0.00 | 57 | 1013.2 |
| 20260506071700 | 58 | 0 | 15.0 | 21.0 | 0.00 | 0.00 | 0.00 | 57 | 1013.2 |
| 20260506071203 | 58 | 0 | 16.0 | 24.0 | 0.00 | 0.00 | 0.00 | 57 | 1013.1 |
| 20260506071158 | 58 | 0 | 15.0 | 24.0 | 0.00 | 0.00 | 0.00 | 57 | 1013.2 |
| 20260506070159 | 58 | 0 | 17.0 | 25.0 | 0.00 | 0.00 | 0.00 | 57 | 1012.9 |
| 20260506062156 | 58 | 0 | 13.0 | 21.0 | 0.00 | 0.00 | 0.00 | 55 | 1012.5 |
| 20260506061658 | 58 | 0 | 14.0 | 22.0 | 0.00 | 0.00 | 0.00 | 55 | 1012.5 |
| 20260506061156 | 58 | 0 | 15.0 | 29.0 | 0.00 | 0.00 | 0.00 | 55 | 1012.5 |
| 20260506060654 | 58 | 0 | 16.0 | 29.0 | 0.00 | 0.00 | 0.00 | 56 | 1012.4 |
| 20260506060154 | 58 | 0 | 17.0 | 29.0 | 0.00 | 0.00 | 0.00 | 56 | 1012.3 |
| 20260506051150 | 58 | 0 | 18.0 | 29.0 | 0.00 | 0.00 | 0.00 | 56 | 1011.9 |
| 20260506050648 | 58 | 0 | 17.0 | 27.0 | 0.00 | 0.00 | 0.00 | 56 | 1011.8 |
| 20260506050149 | 58 | 0 | 16.0 | 27.0 | 0.00 | 0.00 | 0.00 | 56 | 1011.8 |
| 20260506044648 | 58 | 0 | 16.0 | 24.0 | 0.00 | 0.00 | 0.00 | 57 | 1011.6 |
| 20260506044149 | 58 | 0 | 17.0 | 25.0 | 0.00 | 0.00 | 0.00 | 57 | 1011.6 |
| 20260506043648 | 58 | 0 | 17.0 | 25.0 | 0.00 | 0.00 | 0.00 | 57 | 1011.5 |
| 20260506043148 | 58 | 0 | 16.0 | 25.0 | 0.00 | 0.00 | 0.00 | 57 | 1011.5 |
| 20260506042646 | 58 | 0 | 16.0 | 27.0 | 0.00 | 0.00 | 0.00 | 58 | 1011.5 |
| 20260506042146 | 58 | 0 | 16.0 | 27.0 | 0.00 | 0.00 | 0.00 | 58 | 1011.2 |
| 20260506041647 | 58 | 0 | 17.0 | 24.0 | 0.00 | 0.00 | 0.00 | 58 | 1011.2 |
| 20260506041146 | 58 | 0 | 17.0 | 27.0 | 0.00 | 0.00 | 0.00 | 59 | 1011.1 |
| 20260506040646 | 57 | 0 | 17.0 | 27.0 | 0.00 | 0.00 | 0.00 | 60 | 1011.1 |
| 20260506040147 | 57 | 0 | 17.0 | 24.0 | 0.00 | 0.00 | 0.00 | 60 | 1011.0 |
| 20260506035646 | 57 | 0 | 18.0 | 27.0 | 0.00 | 0.00 | 0.00 | 60 | 1010.9 |
| 20260506035147 | 58 | 0 | 19.0 | 30.0 | 0.00 | 0.00 | 0.00 | 59 | 1011.0 |
| 20260506034650 | 58 | 0 | 17.0 | 27.0 | 0.00 | 0.00 | 0.00 | 59 | 1010.7 |
| 20260506034646 | 58 | 0 | 18.0 | 30.0 | 0.00 | 0.00 | 0.00 | 59 | 1010.9 |
| 20260506033644 | 58 | 0 | 18.0 | 29.0 | 0.00 | 0.00 | 0.00 | 59 | 1010.7 |
| 20260506033144 | 58 | 0 | 19.0 | 29.0 | 0.00 | 0.00 | 0.00 | 58 | 1010.6 |
| 20260506032644 | 58 | 0 | 18.0 | 29.0 | 0.00 | 0.00 | 0.00 | 58 | 1010.5 |
| 20260506032144 | 58 | 0 | 16.0 | 24.0 | 0.00 | 0.00 | 0.00 | 59 | 1010.5 |
| 20260506031649 | 58 | 0 | 18.0 | 27.0 | 0.00 | 0.00 | 0.00 | 58 | 1010.3 |
| 20260506031644 | 58 | 0 | 17.0 | 26.0 | 0.00 | 0.00 | 0.00 | 58 | 1010.5 |
| 20260506030649 | 58 | 0 | 18.0 | 29.0 | 0.00 | 0.00 | 0.00 | 58 | 1010.2 |
| 20260506030644 | 58 | 0 | 16.0 | 27.0 | 0.00 | 0.00 | 0.00 | 58 | 1010.2 |
| 20260506025644 | 58 | 0 | 18.0 | 29.0 | 0.00 | 0.00 | 0.00 | 57 | 1010.2 |
| 20260506025146 | 58 | 0 | 18.0 | 30.0 | 0.00 | 0.00 | 0.00 | 57 | 1010.0 |
| 20260506025142 | 58 | 0 | 20.0 | 30.0 | 0.00 | 0.00 | 0.00 | 57 | 1009.9 |
| 20260506024746 | 59 | 0 | 21.0 | 30.0 | 0.00 | 0.00 | 0.00 | 57 | 1009.9 |
| 20260506023642 | 59 | 0 | 20.0 | 31.0 | 0.00 | 0.00 | 0.00 | 56 | 1009.9 |
| 20260506023142 | 59 | 0 | 17.0 | 31.0 | 0.00 | 0.00 | 0.00 | 56 | 1009.8 |
| 20260506022642 | 59 | 0 | 18.0 | 31.0 | 0.00 | 0.00 | 0.00 | 56 | 1009.6 |
| 20260506022142 | 59 | 0 | 18.0 | 31.0 | 0.00 | 0.00 | 0.00 | 56 | 1009.9 |
| 20260506021642 | 60 | 0 | 17.0 | 27.0 | 0.00 | 0.00 | 0.00 | 55 | 1009.6 |
| 20260506021142 | 60 | 0 | 19.0 | 27.0 | 0.00 | 0.00 | 0.00 | 55 | 1009.5 |
| 20260506020641 | 60 | 0 | 19.0 | 28.0 | 0.00 | 0.00 | 0.00 | 55 | 1009.5 |
| 20260506020142 | 60 | 0 | 18.0 | 29.0 | 0.00 | 0.00 | 0.00 | 55 | 1009.3 |
| 20260506015642 | 60 | 0 | 18.0 | 29.0 | 0.00 | 0.00 | 0.00 | 54 | 1009.4 |
| 20260506015142 | 61 | 0 | 18.0 | 29.0 | 0.00 | 0.00 | 0.00 | 54 | 1009.4 |
| 20260506014642 | 60 | 0 | 18.0 | 32.0 | 0.00 | 0.00 | 0.00 | 55 | 1009.3 |
| 20260506014142 | 61 | 0 | 19.0 | 32.0 | 0.00 | 0.00 | 0.00 | 54 | 1009.2 |
| 20260506013642 | 61 | 0 | 19.0 | 29.0 | 0.00 | 0.00 | 0.00 | 54 | 1009.2 |
| 20260506013142 | 61 | 0 | 19.0 | 30.0 | 0.00 | 0.00 | 0.00 | 53 | 1009.0 |
| 20260506012643 | 61 | 0 | 19.0 | 31.0 | 0.00 | 0.00 | 0.00 | 52 | 1009.1 |
| 20260506012142 | 62 | 0 | 20.0 | 31.0 | 0.00 | 0.00 | 0.00 | 52 | 1009.0 |
| 20260506011641 | 62 | 0 | 20.0 | 32.0 | 0.00 | 0.00 | 0.00 | 52 | 1008.9 |
| 20260506011142 | 62 | 0 | 22.0 | 32.0 | 0.00 | 0.00 | 0.00 | 52 | 1008.9 |
| 20260506011138 | 62 | 0 | 21.0 | 30.0 | 0.00 | 0.00 | 0.00 | 52 | 1008.9 |
| 20260506010138 | 63 | 0 | 19.0 | 30.0 | 0.00 | 0.00 | 0.00 | 49 | 1008.9 |
| 20260506005638 | 63 | 0 | 19.0 | 31.0 | 0.00 | 0.00 | 0.00 | 51 | 1008.7 |
| 20260506005137 | 63 | 0 | 19.0 | 34.0 | 0.00 | 0.00 | 0.00 | 49 | 1008.7 |
| 20260506004638 | 63 | 0 | 20.0 | 34.0 | 0.00 | 0.00 | 0.00 | 51 | 1008.7 |
| 20260506004143 | 63 | 0 | 22.0 | 31.0 | 0.00 | 0.00 | 0.00 | 51 | 1008.6 |
| 20260506004138 | 62 | 0 | 21.0 | 31.0 | 0.00 | 0.00 | 0.00 | 52 | 1008.6 |
| 20260506003141 | 62 | 0 | 23.0 | 37.0 | 0.00 | 0.00 | 0.00 | 52 | 1008.8 |
| 20260506003137 | 62 | 0 | 23.0 | 37.0 | 0.00 | 0.00 | 0.00 | 52 | 1008.8 |
| 20260506002136 | 62 | 0 | 23.0 | 35.0 | 0.00 | 0.00 | 0.00 | 52 | 1008.8 |
| 20260506001635 | 63 | 0 | 24.0 | 36.0 | 0.00 | 0.00 | 0.00 | 52 | 1008.7 |
| 20260506001136 | 62 | 0 | 24.0 | 36.0 | 0.00 | 0.00 | 0.00 | 52 | 1008.7 |
| 20260506000640 | 63 | 0 | 22.0 | 33.0 | 0.00 | 0.00 | 0.00 | 52 | 1008.7 |
| 20260506000636 | 63 | 0 | 23.0 | 36.0 | 0.00 | 0.00 | 0.00 | 52 | 1008.6 |
| 20260505235636 | 63 | 0 | 21.0 | 30.0 | 0.00 | 0.00 | 0.00 | 52 | 1008.6 |
| 20260505235135 | 64 | 0 | 20.0 | 30.0 | 0.00 | 0.00 | 0.00 | 49 | 1008.4 |
| 20260505234636 | 64 | 0 | 21.0 | 33.0 | 0.00 | 0.00 | 0.00 | 51 | 1008.4 |
| 20260505234136 | 64 | 0 | 21.0 | 33.0 | 0.00 | 0.00 | 0.00 | 51 | 1008.4 |
| 20260505233636 | 64 | 0 | 22.0 | 33.0 | 0.00 | 0.00 | 0.00 | 52 | 1008.4 |
| 20260505233136 | 64 | 0 | 24.0 | 33.0 | 0.00 | 0.00 | 0.00 | 52 | 1008.5 |
| 20260505232636 | 63 | 0 | 23.0 | 32.0 | 0.00 | 0.00 | 0.00 | 51 | 1008.5 |
| 20260505232136 | 64 | 0 | 20.0 | 31.0 | 0.00 | 0.00 | 0.00 | 49 | 1008.6 |
| 20260505231636 | 65 | 0 | 19.0 | 30.0 | 0.00 | 0.00 | 0.00 | 49 | 1008.4 |
| 20260505231139 | 64 | 0 | 20.0 | 30.0 | 0.00 | 0.00 | 0.00 | 49 | 1008.5 |
| 20260505231135 | 65 | 0 | 19.0 | 29.0 | 0.00 | 0.00 | 0.00 | 48 | 1008.5 |
| 20260505230739 | 65 | 0 | 19.0 | 28.0 | 0.00 | 0.00 | 0.00 | 48 | 1008.5 |
| 20260505225634 | 65 | 0 | 20.0 | 29.0 | 0.00 | 0.00 | 0.00 | 49 | 1008.6 |
| 20260505225133 | 64 | 0 | 21.0 | 31.0 | 0.00 | 0.00 | 0.00 | 49 | 1008.5 |
| 20260505224638 | 64 | 0 | 22.0 | 33.0 | 0.00 | 0.00 | 0.00 | 49 | 1008.7 |
| 20260505224634 | 64 | 0 | 21.0 | 31.0 | 0.00 | 0.00 | 0.00 | 49 | 1008.6 |
| 20260505223633 | 64 | 0 | 20.0 | 33.0 | 0.00 | 0.00 | 0.00 | 49 | 1008.7 |
| 20260505223138 | 65 | 0 | 18.0 | 27.0 | 0.00 | 0.00 | 0.00 | 49 | 1008.8 |
| 20260505223133 | 65 | 0 | 19.0 | 30.0 | 0.00 | 0.00 | 0.00 | 48 | 1008.7 |
| 20260505222134 | 65 | 0 | 18.0 | 27.0 | 0.00 | 0.00 | 0.00 | 48 | 1009.0 |
| 20260505221633 | 65 | 0 | 17.0 | 27.0 | 0.00 | 0.00 | 0.00 | 49 | 1009.0 |
| 20260505221133 | 66 | 0 | 16.0 | 26.0 | 0.00 | 0.00 | 0.00 | 48 | 1009.1 |
| 20260505220634 | 64 | 0 | 18.0 | 29.0 | 0.00 | 0.00 | 0.00 | 51 | 1009.1 |
| 20260505220134 | 64 | 0 | 20.0 | 29.0 | 0.00 | 0.00 | 0.00 | 49 | 1009.2 |
| 20260505215634 | 64 | 0 | 21.0 | 30.0 | 0.00 | 0.00 | 0.00 | 51 | 1009.2 |
| 20260505215138 | 64 | 0 | 19.0 | 29.0 | 0.00 | 0.00 | 0.00 | 52 | 1009.2 |
| 20260505215134 | 64 | 0 | 19.0 | 30.0 | 0.00 | 0.00 | 0.00 | 52 | 1009.2 |
| 20260505214133 | 64 | 0 | 20.0 | 32.0 | 0.00 | 0.00 | 0.00 | 52 | 1009.3 |
| 20260505213634 | 64 | 0 | 20.0 | 32.0 | 0.00 | 0.00 | 0.00 | 49 | 1009.2 |
| 20260505213133 | 65 | 0 | 20.0 | 30.0 | 0.00 | 0.00 | 0.00 | 49 | 1009.3 |
| 20260505212634 | 65 | 0 | 19.0 | 32.0 | 0.00 | 0.00 | 0.00 | 49 | 1009.2 |
| 20260505212134 | 65 | 0 | 19.0 | 32.0 | 0.00 | 0.00 | 0.00 | 49 | 1009.3 |
| 20260505211638 | 65 | 0 | 19.0 | 29.0 | 0.00 | 0.00 | 0.00 | 49 | 1009.4 |
| 20260505211634 | 64 | 0 | 19.0 | 30.0 | 0.00 | 0.00 | 0.00 | 49 | 1009.3 |
| 20260505210633 | 64 | 0 | 20.0 | 28.0 | 0.00 | 0.00 | 0.00 | 49 | 1009.3 |
| 20260505210138 | 65 | 0 | 18.0 | 29.0 | 0.00 | 0.00 | 0.00 | 48 | 1009.4 |
| 20260505210134 | 65 | 0 | 19.0 | 29.0 | 0.00 | 0.00 | 0.00 | 49 | 1009.3 |
| 20260505205138 | 65 | 0 | 18.0 | 29.0 | 0.00 | 0.00 | 0.00 | 49 | 1009.3 |
| 20260505204639 | 64 | 0 | 19.0 | 30.0 | 0.00 | 0.00 | 0.00 | 48 | 1009.3 |
| 20260505204133 | 65 | 0 | 19.0 | 30.0 | 0.00 | 0.00 | 0.00 | 48 | 1009.4 |
| 20260505203638 | 65 | 0 | 17.0 | 27.0 | 0.00 | 0.00 | 0.00 | 47 | 1009.4 |
| 20260505203633 | 64 | 0 | 18.0 | 28.0 | 0.00 | 0.00 | 0.00 | 48 | 1009.4 |
| 20260505202633 | 65 | 0 | 18.0 | 28.0 | 0.00 | 0.00 | 0.00 | 47 | 1009.4 |
| 20260505202138 | 64 | 0 | 17.0 | 30.0 | 0.00 | 0.00 | 0.00 | 48 | 1009.3 |
| 20260505202134 | 65 | 0 | 18.0 | 28.0 | 0.00 | 0.00 | 0.00 | 47 | 1009.4 |
| 20260505201633 | 65 | 0 | 18.0 | 30.0 | 0.00 | 0.00 | 0.00 | 46 | 1009.4 |
| 20260505200632 | 65 | 0 | 16.0 | 25.0 | 0.00 | 0.00 | 0.00 | 46 | 1009.3 |
| 20260505200132 | 65 | 0 | 17.0 | 27.0 | 0.00 | 0.00 | 0.00 | 47 | 1009.4 |
| 20260505195629 | 65 | 0 | 17.0 | 27.0 | 0.00 | 0.00 | 0.00 | 46 | 1009.3 |
| 20260505195134 | 65 | 0 | 17.0 | 26.0 | 0.00 | 0.00 | 0.00 | 46 | 1009.5 |
| 20260505194630 | 65 | 0 | 16.0 | 28.0 | 0.00 | 0.00 | 0.00 | 46 | 1009.3 |
| 20260505194127 | 65 | 0 | 16.0 | 28.0 | 0.00 | 0.00 | 0.00 | 46 | 1009.5 |
| 20260505193627 | 66 | 0 | 17.0 | 29.0 | 0.00 | 0.00 | 0.00 | 46 | 1009.5 |
| 20260505193128 | 64 | 0 | 20.0 | 29.0 | 0.00 | 0.00 | 0.00 | 47 | 1009.5 |
| 20260505192630 | 65 | 0 | 18.0 | 28.0 | 0.00 | 0.00 | 0.00 | 46 | 1009.4 |
| 20260505192626 | 64 | 0 | 19.0 | 28.0 | 0.00 | 0.00 | 0.00 | 47 | 1009.4 |
| 20260505191626 | 65 | 0 | 16.0 | 27.0 | 0.00 | 0.00 | 0.00 | 47 | 1009.4 |
| 20260505191126 | 65 | 0 | 17.0 | 28.0 | 0.00 | 0.00 | 0.00 | 48 | 1009.4 |
| 20260505190625 | 64 | 0 | 19.0 | 28.0 | 0.00 | 0.00 | 0.00 | 47 | 1009.5 |
| 20260505190126 | 65 | 0 | 19.0 | 27.0 | 0.00 | 0.00 | 0.00 | 48 | 1009.4 |
| 20260505185625 | 64 | 0 | 17.0 | 27.0 | 0.00 | 0.00 | 0.00 | 48 | 1009.3 |
| 20260505185125 | 65 | 0 | 17.0 | 26.0 | 0.00 | 0.00 | 0.00 | 47 | 1009.4 |
| 20260505184629 | 64 | 0 | 18.0 | 26.0 | 0.00 | 0.00 | 0.00 | 47 | 1009.3 |
| 20260505184624 | 65 | 0 | 18.0 | 26.0 | 0.00 | 0.00 | 0.00 | 47 | 1009.3 |
| 20260505183627 | 64 | 0 | 18.0 | 31.0 | 0.00 | 0.00 | 0.00 | 47 | 1009.3 |
| 20260505183623 | 64 | 0 | 18.0 | 28.0 | 0.00 | 0.00 | 0.00 | 48 | 1009.3 |
| 20260505182623 | 63 | 0 | 18.0 | 31.0 | 0.00 | 0.00 | 0.00 | 48 | 1009.3 |
| 20260505182129 | 64 | 0 | 18.0 | 26.0 | 0.00 | 0.00 | 0.00 | 48 | 1009.2 |
| 20260505181728 | 63 | 0 | 18.0 | 28.0 | 0.00 | 0.00 | 0.00 | 49 | 1009.2 |
| 20260505181628 | 64 | 0 | 18.0 | 27.0 | 0.00 | 0.00 | 0.00 | 48 | 1009.3 |
| 20260505181624 | 64 | 0 | 18.0 | 27.0 | 0.00 | 0.00 | 0.00 | 47 | 1009.2 |
| 20260505180123 | 63 | 0 | 17.0 | 28.0 | 0.00 | 0.00 | 0.00 | 49 | 1009.2 |
| 20260505175622 | 63 | 0 | 17.0 | 26.0 | 0.00 | 0.00 | 0.00 | 49 | 1009.2 |
| 20260505175122 | 62 | 0 | 17.0 | 26.0 | 0.00 | 0.00 | 0.00 | 51 | 1009.3 |
| 20260505174621 | 62 | 0 | 16.0 | 25.0 | 0.00 | 0.00 | 0.00 | 52 | 1009.2 |
| 20260505174122 | 62 | 0 | 17.0 | 27.0 | 0.00 | 0.00 | 0.00 | 53 | 1009.2 |
| 20260505173620 | 61 | 0 | 18.0 | 27.0 | 0.00 | 0.00 | 0.00 | 53 | 1009.2 |
| 20260505173119 | 62 | 0 | 19.0 | 30.0 | 0.00 | 0.00 | 0.00 | 53 | 1009.2 |
| 20260505172620 | 61 | 0 | 21.0 | 32.0 | 0.00 | 0.00 | 0.00 | 53 | 1009.1 |
| 20260505172119 | 60 | 0 | 22.0 | 32.0 | 0.00 | 0.00 | 0.00 | 53 | 1009.2 |
| 20260505171619 | 60 | 0 | 20.0 | 31.0 | 0.00 | 0.00 | 0.00 | 53 | 1009.0 |
| 20260505171119 | 61 | 0 | 19.0 | 30.0 | 0.00 | 0.00 | 0.00 | 52 | 1009.1 |
| 20260505170619 | 60 | 0 | 20.0 | 28.0 | 0.00 | 0.00 | 0.00 | 55 | 1009.1 |
| 20260505170118 | 60 | 0 | 20.0 | 29.0 | 0.00 | 0.00 | 0.00 | 56 | 1009.1 |
| 20260505165617 | 60 | 0 | 21.0 | 31.0 | 0.00 | 0.00 | 0.00 | 56 | 1009.1 |
| 20260505165117 | 59 | 0 | 21.0 | 31.0 | 0.00 | 0.00 | 0.00 | 57 | 1009.0 |
| 20260505164617 | 59 | 0 | 21.0 | 29.0 | 0.00 | 0.00 | 0.00 | 57 | 1008.9 |
| 20260505164117 | 59 | 0 | 21.0 | 29.0 | 0.00 | 0.00 | 0.00 | 57 | 1009.0 |
| 20260505163617 | 58 | 0 | 21.0 | 30.0 | 0.00 | 0.00 | 0.00 | 57 | 1009.0 |
| 20260505163117 | 58 | 0 | 21.0 | 30.0 | 0.00 | 0.00 | 0.00 | 58 | 1008.9 |
| 20260505162621 | 58 | 0 | 19.0 | 33.0 | 0.00 | 0.00 | 0.00 | 59 | 1008.8 |
| 20260505162616 | 58 | 0 | 20.0 | 33.0 | 0.00 | 0.00 | 0.00 | 57 | 1008.9 |
| 20260505161617 | 59 | 0 | 19.0 | 29.0 | 0.00 | 0.00 | 0.00 | 59 | 1008.8 |
| 20260505161115 | 58 | 0 | 19.0 | 28.0 | 0.00 | 0.00 | 0.00 | 58 | 1008.8 |
| 20260505160615 | 58 | 0 | 19.0 | 28.0 | 0.00 | 0.00 | 0.00 | 58 | 1008.8 |
| 20260505160115 | 57 | 0 | 20.0 | 30.0 | 0.00 | 0.00 | 0.00 | 60 | 1008.8 |